»·PEaware :: N8289A L88-KSBP

N8289A :: L88-KSBP

FLIGHT INFORMATION

Flight Status: Arrived
Operator: Privately registered:
United States
More flights under this callsign
Pilot: Brett S. (36460)
Aircraft: PIPER PA-28 CHEROKEE ARCHER
(PA28)
More flights by this aircraft type
Origin: L88 New Cuyama
United States
Destination: KSBP San Luis Co Regl
United States
More flights between these airports :: More routes between these airports
Route:
File this flight plan on PilotEdge
Remarks:
Altitude:
(Current/Filed)
6,500ft
Speed:
(Current/Filed)
110kts
Departed: 02-Sep-21 06:47 PM
Arrived: 02-Sep-21 07:23 PM
Distance/Time
Traveled:
50nm/0:35
Distance/Time
To Go:
Arrived

Flight Plot

Page will automatically refresh every two minutes.


Map Options




Map Legend


Flown Route
Filed Route
Departure Airport
Arrival Airport
Navaid (VOR, NDB)
Fix

Horizontal Profiles

Position Reports

Time Latitude Longitude Heading Altitude Ground
Speed
02-Sep-21 18:20 34.942856 -119.690285 204 2156ft 0kts
02-Sep-21 18:21 34.942856 -119.690285 204 2156ft 0kts
02-Sep-21 18:22 34.942856 -119.690285 204 2156ft 0kts
02-Sep-21 18:23 34.942856 -119.690285 204 2156ft 0kts
02-Sep-21 18:24 34.942856 -119.690285 204 2156ft 0kts
02-Sep-21 18:25 34.942856 -119.690285 204 2156ft 0kts
02-Sep-21 18:26 34.942856 -119.690285 204 2156ft 0kts
02-Sep-21 18:27 34.942856 -119.690285 204 2156ft 0kts
02-Sep-21 18:28 34.942856 -119.690285 204 2156ft 0kts
02-Sep-21 18:29 34.942856 -119.690285 204 2156ft 0kts
02-Sep-21 18:30 34.942856 -119.690285 204 2156ft 0kts
02-Sep-21 18:31 34.942856 -119.690285 204 2156ft 0kts
02-Sep-21 18:32 34.942856 -119.690285 204 2156ft 0kts
02-Sep-21 18:33 34.942856 -119.690285 204 2156ft 0kts
02-Sep-21 18:34 34.942856 -119.690285 204 2156ft 0kts
02-Sep-21 18:35 34.942856 -119.690285 204 2156ft 0kts
02-Sep-21 18:36 34.942856 -119.690285 204 2156ft 0kts
02-Sep-21 18:37 34.942856 -119.690285 204 2156ft 0kts
02-Sep-21 18:38 34.942856 -119.690285 204 2156ft 0kts
02-Sep-21 18:39 34.942856 -119.690285 204 2156ft 0kts
02-Sep-21 18:40 34.942856 -119.690285 204 2156ft 0kts
02-Sep-21 18:41 34.942856 -119.690285 204 2156ft 0kts
02-Sep-21 18:42 34.942856 -119.690285 204 2156ft 0kts
02-Sep-21 18:43 34.942856 -119.690285 204 2156ft 0kts
02-Sep-21 18:44 34.942659 -119.691240 197 2154ft 4kts
02-Sep-21 18:45 34.942090 -119.690802 114 2156ft 20kts
02-Sep-21 18:46 34.932380 -119.671989 187 2666ft 72kts
02-Sep-21 18:47 34.934422 -119.690834 297 3340ft 71kts
02-Sep-21 18:48 34.944069 -119.712112 291 4016ft 72kts
02-Sep-21 18:49 34.952755 -119.734207 290 4649ft 72kts
02-Sep-21 18:50 34.959695 -119.757146 279 5248ft 73kts
02-Sep-21 18:51 34.967959 -119.780006 287 5810ft 74kts
02-Sep-21 18:52 34.975601 -119.803499 285 6343ft 74kts
02-Sep-21 18:53 34.983794 -119.830463 287 6597ft 91kts
02-Sep-21 18:54 34.994875 -119.859799 291 6605ft 98kts
02-Sep-21 18:55 35.004877 -119.890464 288 6604ft 97kts
02-Sep-21 18:56 35.013621 -119.921606 287 6600ft 97kts
02-Sep-21 18:57 35.024421 -119.951947 290 6587ft 97kts
02-Sep-21 18:58 35.032654 -119.983276 281 6573ft 97kts
02-Sep-21 18:59 35.040104 -120.014959 286 6558ft 97kts
02-Sep-21 19:00 35.049488 -120.046022 286 6539ft 97kts
02-Sep-21 19:01 35.057973 -120.077510 287 6520ft 97kts
02-Sep-21 19:02 35.067704 -120.108020 286 6552ft 95kts
02-Sep-21 19:03 35.076959 -120.138485 289 6568ft 96kts
02-Sep-21 19:04 35.086385 -120.169189 288 6578ft 96kts
02-Sep-21 19:05 35.094341 -120.200325 283 6590ft 96kts
02-Sep-21 19:06 35.102464 -120.231223 284 6632ft 95kts
02-Sep-21 19:07 35.111062 -120.261903 286 6655ft 95kts
02-Sep-21 19:08 35.120772 -120.292401 290 6650ft 97kts
02-Sep-21 19:09 35.132025 -120.322602 291 6626ft 97kts
02-Sep-21 19:11 35.143025 -120.352830 291 6615ft 97kts
02-Sep-21 19:12 35.154416 -120.381937 294 6396ft 93kts
02-Sep-21 19:13 35.165944 -120.410009 292 6123ft 91kts
02-Sep-21 19:14 35.176081 -120.438283 291 5882ft 90kts
02-Sep-21 19:15 35.184538 -120.467108 276 5543ft 90kts
02-Sep-21 19:16 35.182205 -120.497125 259 5071ft 87kts
02-Sep-21 19:17 35.180871 -120.525738 279 4151ft 82kts
02-Sep-21 19:18 35.188141 -120.551836 298 3183ft 82kts
02-Sep-21 19:19 35.200160 -120.574938 301 2255ft 71kts
02-Sep-21 19:20 35.210517 -120.594016 300 1591ft 60kts
02-Sep-21 19:21 35.220351 -120.610678 301 1211ft 59kts
02-Sep-21 19:22 35.229589 -120.627235 302 541ft 59kts
02-Sep-21 19:23 35.236432 -120.639415 303 215ft 15kts
02-Sep-21 19:24 35.238205 -120.639919 312 215ft 5kts
02-Sep-21 19:25 35.238237 -120.639966 309 215ft 0kts
02-Sep-21 19:26 35.238237 -120.639966 309 215ft 0kts
02-Sep-21 19:27 35.238237 -120.639966 309 215ft 0kts
02-Sep-21 19:28 35.238237 -120.639966 309 215ft 0kts
02-Sep-21 19:29 35.238237 -120.639966 309 215ft 0kts
02-Sep-21 19:30 35.238237 -120.639966 309 215ft 0kts
02-Sep-21 19:31 35.238237 -120.639966 309 215ft 0kts
02-Sep-21 19:31 35.238237 -120.639966 309 215ft 0kts
02-Sep-21 19:33 35.238237 -120.639966 309 215ft 0kts
02-Sep-21 19:34 35.238237 -120.639966 309 215ft 0kts

Navigation Log

Ident Type
Flight plan parsing failed, navigation log unavailable